This is the latest recevied weather packets stored in our database for station/object ac2ev. If no packets are shown the sender has not sent any weather packets the latest 10 day(s).
| Time | Temp. | Humidity | Pressure | Rain* | Wind** | Luminosity | Snow |
|---|---|---|---|---|---|---|---|
| 1776974355 | 13.33° C | 50% | 1013.8 hPa | 0 mm | - | - | - |
| 1776974053 | 13.33° C | 53% | 1013.9 hPa | 0 mm | - | - | - |
| 1776973751 | 12.78° C | 53% | 1014 hPa | 0 mm | - | - | - |
| 1776973451 | 12.78° C | 54% | 1014.1 hPa | 0 mm | - | - | - |
| 1776973145 | 12.78° C | 52% | 1014.2 hPa | 0 mm | - | - | - |
| 1776972846 | 12.78° C | 53% | 1014.3 hPa | 0 mm | - | - | - |
| 1776972545 | 12.78° C | 52% | 1014.4 hPa | 0 mm | - | - | - |
| 1776972246 | 12.78° C | 51% | 1014.5 hPa | 0 mm | - | - | - |
| 1776971946 | 12.78° C | 52% | 1014.6 hPa | 0 mm | - | - | - |
| 1776971645 | 12.78° C | 54% | 1014.6 hPa | 0 mm | - | - | - |
| 1776971346 | 12.78° C | 51% | 1014.6 hPa | 0 mm | - | - | - |
| 1776971047 | 12.78° C | 54% | 1014.7 hPa | 0 mm | - | - | - |
| 1776970745 | 12.78° C | 57% | 1014.8 hPa | 0 mm | - | - | - |
| 1776970447 | 12.22° C | 56% | 1014.9 hPa | 0 mm | - | - | - |
| 1776970146 | 12.22° C | 56% | 1015 hPa | 0 mm | - | - | - |
| 1776969844 | 12.22° C | 55% | 1015.1 hPa | 0 mm | - | - | - |
| 1776969544 | 12.78° C | 54% | 1015.1 hPa | 0 mm | - | - | - |
| 1776969244 | 14.44° C | 50% | 1015.1 hPa | 0 mm | - | - | - |
| 1776968945 | 15.56° C | 49% | 1015.1 hPa | 0 mm | - | - | - |
| 1776968644 | 16.67° C | 46% | 1015.1 hPa | 0 mm | - | - | - |
| 1776968342 | 17.22° C | 41% | 1015 hPa | 0 mm | - | - | - |
| 1776968129 | 17.78° C | 34% | 1014.9 hPa | 0 mm | - | - | - |
| 1776967743 | 17.78° C | 35% | 1014.9 hPa | 0 mm | - | - | - |
| 1776967531 | 17.22° C | 35% | 1014.9 hPa | 0 mm | - | - | - |
| 1776967143 | 17.22° C | 36% | 1015 hPa | 0 mm | - | - | - |
* Rain latest hour (hover to see other rain measurements)
** Current wind speed in m/s (hover to see current wind gust speed)